sensor_id;sensor_type;location;lat;lon;timestamp;P1;durP1;ratioP1;P2;durP2;ratioP2
21769;SDS011;11046;49.558;8.674;2023-11-18T00:00:44;20.07;;;10.83;;
21769;SDS011;11046;49.558;8.674;2023-11-18T00:03:45;22.50;;;11.40;;
21769;SDS011;11046;49.558;8.674;2023-11-18T00:06:45;19.47;;;11.20;;
21769;SDS011;11046;49.558;8.674;2023-11-18T00:13:46;18.47;;;10.13;;
21769;SDS011;11046;49.558;8.674;2023-11-18T00:16:47;19.80;;;9.97;;
21769;SDS011;11046;49.558;8.674;2023-11-18T00:19:53;21.53;;;9.60;;
21769;SDS011;11046;49.558;8.674;2023-11-18T00:22:53;17.33;;;9.80;;
21769;SDS011;11046;49.558;8.674;2023-11-18T00:25:55;18.23;;;9.67;;
21769;SDS011;11046;49.558;8.674;2023-11-18T00:28:56;20.07;;;10.03;;
21769;SDS011;11046;49.558;8.674;2023-11-18T00:31:56;16.77;;;9.50;;
21769;SDS011;11046;49.558;8.674;2023-11-18T00:34:57;20.67;;;10.20;;
21769;SDS011;11046;49.558;8.674;2023-11-18T00:38:00;17.80;;;10.10;;
21769;SDS011;11046;49.558;8.674;2023-11-18T00:41:02;18.30;;;9.77;;
21769;SDS011;11046;49.558;8.674;2023-11-18T00:44:05;17.87;;;10.00;;
21769;SDS011;11046;49.558;8.674;2023-11-18T00:47:07;22.77;;;10.57;;
21769;SDS011;11046;49.558;8.674;2023-11-18T00:50:11;18.73;;;10.27;;
21769;SDS011;11046;49.558;8.674;2023-11-18T00:53:11;18.73;;;10.50;;
21769;SDS011;11046;49.558;8.674;2023-11-18T00:56:15;18.30;;;10.87;;
21769;SDS011;11046;49.558;8.674;2023-11-18T00:59:18;24.27;;;10.63;;
21769;SDS011;11046;49.558;8.674;2023-11-18T01:02:21;29.47;;;10.57;;
21769;SDS011;11046;49.558;8.674;2023-11-18T01:05:22;21.07;;;10.27;;
21769;SDS011;11046;49.558;8.674;2023-11-18T01:08:25;18.10;;;10.13;;
21769;SDS011;11046;49.558;8.674;2023-11-18T01:11:31;19.73;;;10.00;;
21769;SDS011;11046;49.558;8.674;2023-11-18T01:14:31;23.33;;;10.40;;
21769;SDS011;11046;49.558;8.674;2023-11-18T01:17:32;20.47;;;10.60;;
21769;SDS011;11046;49.558;8.674;2023-11-18T01:20:36;20.17;;;10.17;;
21769;SDS011;11046;49.558;8.674;2023-11-18T01:23:40;17.43;;;10.63;;
21769;SDS011;11046;49.558;8.674;2023-11-18T01:26:42;19.77;;;10.33;;
21769;SDS011;11046;49.558;8.674;2023-11-18T01:29:44;20.23;;;10.73;;
21769;SDS011;11046;49.558;8.674;2023-11-18T01:32:46;21.40;;;10.43;;
21769;SDS011;11046;49.558;8.674;2023-11-18T01:35:50;21.77;;;11.10;;
21769;SDS011;11046;49.558;8.674;2023-11-18T01:38:51;24.20;;;10.50;;
21769;SDS011;11046;49.558;8.674;2023-11-18T01:41:51;19.43;;;11.17;;
21769;SDS011;11046;49.558;8.674;2023-11-18T01:44:55;23.00;;;11.80;;
21769;SDS011;11046;49.558;8.674;2023-11-18T01:47:58;21.57;;;11.47;;
21769;SDS011;11046;49.558;8.674;2023-11-18T01:51:02;21.80;;;10.93;;
21769;SDS011;11046;49.558;8.674;2023-11-18T01:54:10;28.00;;;11.27;;
21769;SDS011;11046;49.558;8.674;2023-11-18T01:57:15;24.33;;;11.27;;
21769;SDS011;11046;49.558;8.674;2023-11-18T02:00:16;23.90;;;10.93;;
21769;SDS011;11046;49.558;8.674;2023-11-18T02:03:17;24.13;;;10.87;;
21769;SDS011;11046;49.558;8.674;2023-11-18T02:06:18;22.87;;;11.43;;
21769;SDS011;11046;49.558;8.674;2023-11-18T02:09:21;22.23;;;11.13;;
21769;SDS011;11046;49.558;8.674;2023-11-18T02:12:52;24.43;;;12.07;;
21769;SDS011;11046;49.558;8.674;2023-11-18T02:16:09;21.43;;;11.10;;
21769;SDS011;11046;49.558;8.674;2023-11-18T02:19:19;26.20;;;11.60;;
21769;SDS011;11046;49.558;8.674;2023-11-18T02:22:24;21.30;;;11.33;;
21769;SDS011;11046;49.558;8.674;2023-11-18T02:25:29;24.17;;;11.10;;
21769;SDS011;11046;49.558;8.674;2023-11-18T02:28:34;23.97;;;10.80;;
21769;SDS011;11046;49.558;8.674;2023-11-18T02:31:35;26.47;;;11.37;;
21769;SDS011;11046;49.558;8.674;2023-11-18T02:34:39;27.47;;;10.90;;
21769;SDS011;11046;49.558;8.674;2023-11-18T02:37:44;21.83;;;10.93;;
21769;SDS011;11046;49.558;8.674;2023-11-18T02:40:50;28.00;;;11.80;;
21769;SDS011;11046;49.558;8.674;2023-11-18T02:43:57;22.80;;;11.73;;
21769;SDS011;11046;49.558;8.674;2023-11-18T02:47:04;25.03;;;11.03;;
21769;SDS011;11046;49.558;8.674;2023-11-18T02:50:05;24.10;;;11.07;;
21769;SDS011;11046;49.558;8.674;2023-11-18T02:53:10;23.93;;;11.70;;
21769;SDS011;11046;49.558;8.674;2023-11-18T02:56:11;25.33;;;12.03;;
21769;SDS011;11046;49.558;8.674;2023-11-18T02:59:12;26.20;;;11.53;;
21769;SDS011;11046;49.558;8.674;2023-11-18T03:02:13;24.87;;;11.60;;
21769;SDS011;11046;49.558;8.674;2023-11-18T03:05:15;27.63;;;12.13;;
21769;SDS011;11046;49.558;8.674;2023-11-18T03:08:16;27.60;;;11.90;;
21769;SDS011;11046;49.558;8.674;2023-11-18T03:11:17;25.40;;;12.27;;
21769;SDS011;11046;49.558;8.674;2023-11-18T03:14:19;23.67;;;11.57;;
21769;SDS011;11046;49.558;8.674;2023-11-18T03:17:19;26.63;;;11.50;;
21769;SDS011;11046;49.558;8.674;2023-11-18T03:20:21;24.70;;;11.00;;
21769;SDS011;11046;49.558;8.674;2023-11-18T03:23:23;22.93;;;10.83;;
21769;SDS011;11046;49.558;8.674;2023-11-18T03:26:26;26.30;;;11.60;;
21769;SDS011;11046;49.558;8.674;2023-11-18T03:29:27;27.90;;;11.87;;
21769;SDS011;11046;49.558;8.674;2023-11-18T03:32:34;26.83;;;11.23;;
21769;SDS011;11046;49.558;8.674;2023-11-18T03:35:39;29.57;;;12.10;;
21769;SDS011;11046;49.558;8.674;2023-11-18T03:38:40;29.80;;;11.43;;
21769;SDS011;11046;49.558;8.674;2023-11-18T03:41:41;27.03;;;12.23;;
21769;SDS011;11046;49.558;8.674;2023-11-18T03:44:44;28.43;;;13.37;;
21769;SDS011;11046;49.558;8.674;2023-11-18T03:47:50;32.67;;;12.33;;
21769;SDS011;11046;49.558;8.674;2023-11-18T03:50:51;28.73;;;11.53;;
21769;SDS011;11046;49.558;8.674;2023-11-18T03:53:56;30.17;;;12.63;;
21769;SDS011;11046;49.558;8.674;2023-11-18T03:57:00;27.43;;;12.20;;
21769;SDS011;11046;49.558;8.674;2023-11-18T04:00:06;29.40;;;12.43;;
21769;SDS011;11046;49.558;8.674;2023-11-18T04:03:17;29.47;;;12.37;;
21769;SDS011;11046;49.558;8.674;2023-11-18T04:06:21;27.23;;;11.97;;
21769;SDS011;11046;49.558;8.674;2023-11-18T04:09:26;28.83;;;12.30;;
21769;SDS011;11046;49.558;8.674;2023-11-18T04:12:27;29.60;;;12.80;;
21769;SDS011;11046;49.558;8.674;2023-11-18T04:15:31;32.40;;;12.70;;
21769;SDS011;11046;49.558;8.674;2023-11-18T04:18:32;30.43;;;13.27;;
21769;SDS011;11046;49.558;8.674;2023-11-18T04:21:36;29.27;;;12.83;;
21769;SDS011;11046;49.558;8.674;2023-11-18T04:24:39;29.23;;;13.50;;
21769;SDS011;11046;49.558;8.674;2023-11-18T04:27:40;27.70;;;13.00;;
21769;SDS011;11046;49.558;8.674;2023-11-18T04:30:42;28.60;;;13.47;;
21769;SDS011;11046;49.558;8.674;2023-11-18T04:33:43;35.73;;;13.80;;
21769;SDS011;11046;49.558;8.674;2023-11-18T04:36:46;29.77;;;13.43;;
21769;SDS011;11046;49.558;8.674;2023-11-18T04:39:47;29.30;;;13.70;;
21769;SDS011;11046;49.558;8.674;2023-11-18T04:42:48;29.07;;;13.30;;
21769;SDS011;11046;49.558;8.674;2023-11-18T04:45:49;37.50;;;13.80;;
21769;SDS011;11046;49.558;8.674;2023-11-18T04:48:50;28.03;;;13.43;;
21769;SDS011;11046;49.558;8.674;2023-11-18T04:51:53;26.80;;;12.70;;
21769;SDS011;11046;49.558;8.674;2023-11-18T04:54:53;26.07;;;12.43;;
21769;SDS011;11046;49.558;8.674;2023-11-18T04:57:55;32.53;;;13.30;;
21769;SDS011;11046;49.558;8.674;2023-11-18T05:00:55;29.93;;;12.70;;
21769;SDS011;11046;49.558;8.674;2023-11-18T05:03:59;30.40;;;12.23;;
21769;SDS011;11046;49.558;8.674;2023-11-18T05:07:00;30.47;;;13.17;;
21769;SDS011;11046;49.558;8.674;2023-11-18T05:10:01;27.00;;;12.03;;
21769;SDS011;11046;49.558;8.674;2023-11-18T05:13:03;25.87;;;12.57;;
21769;SDS011;11046;49.558;8.674;2023-11-18T05:16:09;31.53;;;13.30;;
21769;SDS011;11046;49.558;8.674;2023-11-18T05:19:14;26.90;;;12.30;;
21769;SDS011;11046;49.558;8.674;2023-11-18T05:22:16;28.17;;;12.27;;
21769;SDS011;11046;49.558;8.674;2023-11-18T05:25:17;27.60;;;11.83;;
21769;SDS011;11046;49.558;8.674;2023-11-18T05:28:18;24.97;;;12.10;;
21769;SDS011;11046;49.558;8.674;2023-11-18T05:31:19;27.27;;;11.50;;
21769;SDS011;11046;49.558;8.674;2023-11-18T05:34:23;24.23;;;11.80;;
21769;SDS011;11046;49.558;8.674;2023-11-18T05:37:24;29.67;;;12.10;;
21769;SDS011;11046;49.558;8.674;2023-11-18T05:40:26;24.53;;;11.03;;
21769;SDS011;11046;49.558;8.674;2023-11-18T05:43:32;24.27;;;11.07;;
21769;SDS011;11046;49.558;8.674;2023-11-18T05:46:37;26.63;;;12.50;;
21769;SDS011;11046;49.558;8.674;2023-11-18T05:49:39;27.63;;;12.13;;
21769;SDS011;11046;49.558;8.674;2023-11-18T05:52:47;26.83;;;11.63;;
21769;SDS011;11046;49.558;8.674;2023-11-18T05:55:50;30.67;;;13.33;;
21769;SDS011;11046;49.558;8.674;2023-11-18T05:58:52;30.07;;;12.10;;
21769;SDS011;11046;49.558;8.674;2023-11-18T06:01:53;28.33;;;12.80;;
21769;SDS011;11046;49.558;8.674;2023-11-18T06:04:54;24.30;;;11.93;;
21769;SDS011;11046;49.558;8.674;2023-11-18T06:08:02;28.83;;;12.73;;
21769;SDS011;11046;49.558;8.674;2023-11-18T06:11:04;26.93;;;12.00;;
21769;SDS011;11046;49.558;8.674;2023-11-18T06:14:12;29.33;;;13.30;;
21769;SDS011;11046;49.558;8.674;2023-11-18T06:17:16;30.30;;;13.87;;
21769;SDS011;11046;49.558;8.674;2023-11-18T06:20:19;25.73;;;12.27;;
21769;SDS011;11046;49.558;8.674;2023-11-18T06:23:20;25.23;;;11.73;;
21769;SDS011;11046;49.558;8.674;2023-11-18T06:26:24;27.10;;;12.07;;
21769;SDS011;11046;49.558;8.674;2023-11-18T06:29:31;25.37;;;12.20;;
21769;SDS011;11046;49.558;8.674;2023-11-18T06:32:31;27.33;;;12.33;;
21769;SDS011;11046;49.558;8.674;2023-11-18T06:35:34;26.97;;;11.87;;
21769;SDS011;11046;49.558;8.674;2023-11-18T06:38:37;27.00;;;12.07;;
21769;SDS011;11046;49.558;8.674;2023-11-18T06:41:38;28.03;;;12.80;;
21769;SDS011;11046;49.558;8.674;2023-11-18T06:44:48;28.87;;;12.33;;
21769;SDS011;11046;49.558;8.674;2023-11-18T06:47:49;28.57;;;13.07;;
21769;SDS011;11046;49.558;8.674;2023-11-18T06:54:17;28.03;;;12.70;;
21769;SDS011;11046;49.558;8.674;2023-11-18T06:57:21;24.57;;;12.43;;
21769;SDS011;11046;49.558;8.674;2023-11-18T07:00:22;27.13;;;13.37;;
21769;SDS011;11046;49.558;8.674;2023-11-18T07:03:28;28.97;;;13.17;;
21769;SDS011;11046;49.558;8.674;2023-11-18T07:06:29;29.70;;;14.13;;
21769;SDS011;11046;49.558;8.674;2023-11-18T07:09:29;26.97;;;13.10;;
21769;SDS011;11046;49.558;8.674;2023-11-18T07:12:36;24.37;;;12.47;;
21769;SDS011;11046;49.558;8.674;2023-11-18T07:15:38;26.87;;;12.63;;
21769;SDS011;11046;49.558;8.674;2023-11-18T07:18:38;28.57;;;11.43;;
21769;SDS011;11046;49.558;8.674;2023-11-18T07:21:39;25.40;;;12.53;;
21769;SDS011;11046;49.558;8.674;2023-11-18T07:24:40;25.47;;;12.77;;
21769;SDS011;11046;49.558;8.674;2023-11-18T07:27:43;26.03;;;11.40;;
21769;SDS011;11046;49.558;8.674;2023-11-18T07:30:44;24.47;;;12.57;;
21769;SDS011;11046;49.558;8.674;2023-11-18T07:33:47;24.47;;;12.20;;
21769;SDS011;11046;49.558;8.674;2023-11-18T07:36:49;27.67;;;13.27;;
21769;SDS011;11046;49.558;8.674;2023-11-18T07:39:50;25.73;;;12.97;;
21769;SDS011;11046;49.558;8.674;2023-11-18T07:42:50;29.83;;;12.33;;
21769;SDS011;11046;49.558;8.674;2023-11-18T07:45:52;24.80;;;12.33;;
21769;SDS011;11046;49.558;8.674;2023-11-18T07:48:53;25.17;;;12.37;;
21769;SDS011;11046;49.558;8.674;2023-11-18T07:51:54;27.40;;;13.37;;
21769;SDS011;11046;49.558;8.674;2023-11-18T07:54:54;27.10;;;13.47;;
21769;SDS011;11046;49.558;8.674;2023-11-18T07:57:55;30.43;;;14.30;;
21769;SDS011;11046;49.558;8.674;2023-11-18T08:00:58;29.23;;;14.43;;
21769;SDS011;11046;49.558;8.674;2023-11-18T08:04:01;27.77;;;13.67;;
21769;SDS011;11046;49.558;8.674;2023-11-18T08:07:06;24.50;;;13.17;;
21769;SDS011;11046;49.558;8.674;2023-11-18T08:10:13;28.23;;;14.20;;
21769;SDS011;11046;49.558;8.674;2023-11-18T08:13:18;69.20;;;26.93;;
21769;SDS011;11046;49.558;8.674;2023-11-18T08:16:19;68.67;;;27.17;;
21769;SDS011;11046;49.558;8.674;2023-11-18T08:19:25;51.30;;;20.93;;
21769;SDS011;11046;49.558;8.674;2023-11-18T08:22:29;41.50;;;18.27;;
21769;SDS011;11046;49.558;8.674;2023-11-18T08:25:30;45.00;;;18.43;;
21769;SDS011;11046;49.558;8.674;2023-11-18T08:28:38;34.93;;;16.23;;
21769;SDS011;11046;49.558;8.674;2023-11-18T08:31:38;35.67;;;16.37;;
21769;SDS011;11046;49.558;8.674;2023-11-18T08:34:39;28.33;;;13.00;;
21769;SDS011;11046;49.558;8.674;2023-11-18T08:37:44;26.43;;;12.77;;
21769;SDS011;11046;49.558;8.674;2023-11-18T08:40:51;26.30;;;11.97;;
21769;SDS011;11046;49.558;8.674;2023-11-18T08:43:55;26.67;;;12.40;;
21769;SDS011;11046;49.558;8.674;2023-11-18T08:47:03;28.80;;;12.60;;
21769;SDS011;11046;49.558;8.674;2023-11-18T08:50:15;25.37;;;12.30;;
21769;SDS011;11046;49.558;8.674;2023-11-18T08:53:16;26.80;;;12.97;;
21769;SDS011;11046;49.558;8.674;2023-11-18T08:56:26;27.57;;;13.67;;
21769;SDS011;11046;49.558;8.674;2023-11-18T08:59:34;21.60;;;11.57;;
21769;SDS011;11046;49.558;8.674;2023-11-18T09:02:37;19.00;;;11.10;;
21769;SDS011;11046;49.558;8.674;2023-11-18T09:05:38;23.00;;;11.50;;
21769;SDS011;11046;49.558;8.674;2023-11-18T09:08:42;19.00;;;9.80;;
21769;SDS011;11046;49.558;8.674;2023-11-18T09:11:46;18.93;;;8.63;;
21769;SDS011;11046;49.558;8.674;2023-11-18T09:14:48;16.33;;;7.83;;
21769;SDS011;11046;49.558;8.674;2023-11-18T09:17:51;16.43;;;8.43;;
21769;SDS011;11046;49.558;8.674;2023-11-18T09:20:53;13.87;;;6.83;;
21769;SDS011;11046;49.558;8.674;2023-11-18T09:23:59;20.83;;;8.17;;
21769;SDS011;11046;49.558;8.674;2023-11-18T09:27:00;11.43;;;7.23;;
21769;SDS011;11046;49.558;8.674;2023-11-18T09:30:00;13.83;;;7.97;;
21769;SDS011;11046;49.558;8.674;2023-11-18T09:33:01;13.87;;;7.57;;
21769;SDS011;11046;49.558;8.674;2023-11-18T09:36:03;16.73;;;8.20;;
21769;SDS011;11046;49.558;8.674;2023-11-18T09:39:07;26.73;;;11.17;;
21769;SDS011;11046;49.558;8.674;2023-11-18T09:42:08;17.97;;;9.20;;
21769;SDS011;11046;49.558;8.674;2023-11-18T09:45:09;15.03;;;8.70;;
21769;SDS011;11046;49.558;8.674;2023-11-18T09:48:19;20.17;;;8.80;;
21769;SDS011;11046;49.558;8.674;2023-11-18T09:51:26;15.57;;;8.53;;
21769;SDS011;11046;49.558;8.674;2023-11-18T09:57:44;15.60;;;7.87;;
21769;SDS011;11046;49.558;8.674;2023-11-18T10:00:57;12.43;;;6.90;;
21769;SDS011;11046;49.558;8.674;2023-11-18T10:03:58;12.00;;;6.67;;
21769;SDS011;11046;49.558;8.674;2023-11-18T10:07:01;11.63;;;7.30;;
21769;SDS011;11046;49.558;8.674;2023-11-18T10:10:03;15.57;;;8.47;;
21769;SDS011;11046;49.558;8.674;2023-11-18T10:13:04;11.53;;;6.63;;
21769;SDS011;11046;49.558;8.674;2023-11-18T10:16:18;12.27;;;6.90;;
21769;SDS011;11046;49.558;8.674;2023-11-18T10:19:20;14.17;;;7.40;;
21769;SDS011;11046;49.558;8.674;2023-11-18T10:22:22;11.30;;;7.27;;
21769;SDS011;11046;49.558;8.674;2023-11-18T10:25:26;14.67;;;7.33;;
21769;SDS011;11046;49.558;8.674;2023-11-18T10:28:27;15.43;;;7.90;;
21769;SDS011;11046;49.558;8.674;2023-11-18T10:31:29;11.03;;;6.90;;
21769;SDS011;11046;49.558;8.674;2023-11-18T10:34:30;14.87;;;8.40;;
21769;SDS011;11046;49.558;8.674;2023-11-18T10:37:31;15.73;;;7.90;;
21769;SDS011;11046;49.558;8.674;2023-11-18T10:40:32;15.23;;;7.87;;
21769;SDS011;11046;49.558;8.674;2023-11-18T10:43:37;13.80;;;7.97;;
21769;SDS011;11046;49.558;8.674;2023-11-18T10:46:40;20.23;;;10.50;;
21769;SDS011;11046;49.558;8.674;2023-11-18T10:49:50;14.40;;;7.37;;
21769;SDS011;11046;49.558;8.674;2023-11-18T10:52:51;13.30;;;7.40;;
21769;SDS011;11046;49.558;8.674;2023-11-18T10:55:52;12.83;;;7.27;;
21769;SDS011;11046;49.558;8.674;2023-11-18T10:58:58;16.60;;;6.70;;
21769;SDS011;11046;49.558;8.674;2023-11-18T11:02:18;13.90;;;7.43;;
21769;SDS011;11046;49.558;8.674;2023-11-18T11:05:29;15.93;;;7.37;;
21769;SDS011;11046;49.558;8.674;2023-11-18T11:08:35;11.13;;;5.20;;
21769;SDS011;11046;49.558;8.674;2023-11-18T11:11:39;10.07;;;6.27;;
21769;SDS011;11046;49.558;8.674;2023-11-18T11:14:50;9.73;;;5.30;;
21769;SDS011;11046;49.558;8.674;2023-11-18T11:18:21;10.53;;;5.57;;
21769;SDS011;11046;49.558;8.674;2023-11-18T11:21:28;10.87;;;5.40;;
21769;SDS011;11046;49.558;8.674;2023-11-18T11:24:40;15.27;;;7.10;;
21769;SDS011;11046;49.558;8.674;2023-11-18T11:27:59;9.93;;;5.80;;
21769;SDS011;11046;49.558;8.674;2023-11-18T11:31:14;9.80;;;5.37;;
21769;SDS011;11046;49.558;8.674;2023-11-18T11:34:22;7.30;;;4.53;;
21769;SDS011;11046;49.558;8.674;2023-11-18T11:37:26;7.10;;;4.30;;
21769;SDS011;11046;49.558;8.674;2023-11-18T11:40:31;9.50;;;4.13;;
21769;SDS011;11046;49.558;8.674;2023-11-18T11:43:35;5.40;;;3.70;;
21769;SDS011;11046;49.558;8.674;2023-11-18T11:46:36;6.73;;;3.40;;
21769;SDS011;11046;49.558;8.674;2023-11-18T11:49:39;4.67;;;3.43;;
21769;SDS011;11046;49.558;8.674;2023-11-18T11:52:48;8.40;;;3.17;;
21769;SDS011;11046;49.558;8.674;2023-11-18T11:55:58;5.50;;;3.00;;
21769;SDS011;11046;49.558;8.674;2023-11-18T11:59:09;6.67;;;3.47;;
21769;SDS011;11046;49.558;8.674;2023-11-18T12:02:16;8.57;;;4.37;;
21769;SDS011;11046;49.558;8.674;2023-11-18T12:05:17;6.77;;;3.50;;
21769;SDS011;11046;49.558;8.674;2023-11-18T12:08:25;9.07;;;3.60;;
21769;SDS011;11046;49.558;8.674;2023-11-18T12:11:27;8.00;;;3.30;;
21769;SDS011;11046;49.558;8.674;2023-11-18T12:15:04;5.60;;;2.90;;
21769;SDS011;11046;49.558;8.674;2023-11-18T12:18:21;8.67;;;3.60;;
21769;SDS011;11046;49.558;8.674;2023-11-18T12:21:53;5.83;;;2.90;;
21769;SDS011;11046;49.558;8.674;2023-11-18T12:27:58;4.97;;;2.80;;
21769;SDS011;11046;49.558;8.674;2023-11-18T12:31:07;10.20;;;2.90;;
21769;SDS011;11046;49.558;8.674;2023-11-18T12:34:18;7.50;;;3.50;;
21769;SDS011;11046;49.558;8.674;2023-11-18T12:37:57;11.03;;;4.17;;
21769;SDS011;11046;49.558;8.674;2023-11-18T12:41:35;9.63;;;3.40;;
21769;SDS011;11046;49.558;8.674;2023-11-18T12:44:50;7.37;;;3.50;;
21769;SDS011;11046;49.558;8.674;2023-11-18T12:48:07;6.77;;;3.13;;
21769;SDS011;11046;49.558;8.674;2023-11-18T12:51:20;8.83;;;2.90;;
21769;SDS011;11046;49.558;8.674;2023-11-18T12:54:23;6.07;;;3.37;;
21769;SDS011;11046;49.558;8.674;2023-11-18T12:57:28;7.93;;;3.00;;
21769;SDS011;11046;49.558;8.674;2023-11-18T13:00:41;7.43;;;3.10;;
21769;SDS011;11046;49.558;8.674;2023-11-18T13:03:44;8.40;;;3.57;;
21769;SDS011;11046;49.558;8.674;2023-11-18T13:06:46;5.93;;;2.87;;
21769;SDS011;11046;49.558;8.674;2023-11-18T13:09:49;6.57;;;3.00;;
21769;SDS011;11046;49.558;8.674;2023-11-18T13:12:55;5.23;;;3.07;;
21769;SDS011;11046;49.558;8.674;2023-11-18T13:15:58;8.47;;;4.27;;
21769;SDS011;11046;49.558;8.674;2023-11-18T13:18:59;11.67;;;3.40;;
21769;SDS011;11046;49.558;8.674;2023-11-18T13:22:00;9.07;;;4.37;;
21769;SDS011;11046;49.558;8.674;2023-11-18T13:25:04;6.80;;;3.63;;
21769;SDS011;11046;49.558;8.674;2023-11-18T13:28:05;9.23;;;4.63;;
21769;SDS011;11046;49.558;8.674;2023-11-18T13:31:10;7.63;;;3.03;;
21769;SDS011;11046;49.558;8.674;2023-11-18T13:34:10;5.57;;;1.93;;
21769;SDS011;11046;49.558;8.674;2023-11-18T13:37:13;4.83;;;2.20;;
21769;SDS011;11046;49.558;8.674;2023-11-18T13:40:18;6.43;;;2.43;;
21769;SDS011;11046;49.558;8.674;2023-11-18T13:43:22;6.77;;;2.40;;
21769;SDS011;11046;49.558;8.674;2023-11-18T13:46:24;6.00;;;2.73;;
21769;SDS011;11046;49.558;8.674;2023-11-18T13:49:29;7.77;;;2.70;;
21769;SDS011;11046;49.558;8.674;2023-11-18T13:52:34;4.47;;;2.20;;
21769;SDS011;11046;49.558;8.674;2023-11-18T13:55:37;3.27;;;1.90;;
21769;SDS011;11046;49.558;8.674;2023-11-18T13:58:39;7.73;;;2.00;;
21769;SDS011;11046;49.558;8.674;2023-11-18T14:01:47;4.50;;;2.20;;
21769;SDS011;11046;49.558;8.674;2023-11-18T14:04:50;4.30;;;2.07;;
21769;SDS011;11046;49.558;8.674;2023-11-18T14:07:57;7.30;;;2.33;;
21769;SDS011;11046;49.558;8.674;2023-11-18T14:11:08;3.57;;;1.90;;
21769;SDS011;11046;49.558;8.674;2023-11-18T14:14:09;2.43;;;1.50;;
21769;SDS011;11046;49.558;8.674;2023-11-18T14:17:10;5.07;;;1.73;;
21769;SDS011;11046;49.558;8.674;2023-11-18T14:20:11;2.97;;;1.90;;
21769;SDS011;11046;49.558;8.674;2023-11-18T14:23:13;3.30;;;1.93;;
21769;SDS011;11046;49.558;8.674;2023-11-18T14:26:14;6.33;;;3.70;;
21769;SDS011;11046;49.558;8.674;2023-11-18T14:29:14;7.80;;;3.47;;
21769;SDS011;11046;49.558;8.674;2023-11-18T14:32:15;6.30;;;3.30;;
21769;SDS011;11046;49.558;8.674;2023-11-18T14:35:16;6.77;;;3.07;;
21769;SDS011;11046;49.558;8.674;2023-11-18T14:38:17;6.40;;;3.50;;
21769;SDS011;11046;49.558;8.674;2023-11-18T14:41:18;8.23;;;3.20;;
21769;SDS011;11046;49.558;8.674;2023-11-18T14:44:20;9.87;;;4.70;;
21769;SDS011;11046;49.558;8.674;2023-11-18T14:47:20;9.70;;;3.20;;
21769;SDS011;11046;49.558;8.674;2023-11-18T14:50:21;9.27;;;3.33;;
21769;SDS011;11046;49.558;8.674;2023-11-18T14:53:24;5.67;;;4.23;;
21769;SDS011;11046;49.558;8.674;2023-11-18T14:56:25;6.87;;;4.30;;
21769;SDS011;11046;49.558;8.674;2023-11-18T14:59:26;15.73;;;6.43;;
21769;SDS011;11046;49.558;8.674;2023-11-18T15:02:27;12.87;;;5.57;;
21769;SDS011;11046;49.558;8.674;2023-11-18T15:05:28;6.50;;;3.50;;
21769;SDS011;11046;49.558;8.674;2023-11-18T15:08:31;6.93;;;3.53;;
21769;SDS011;11046;49.558;8.674;2023-11-18T15:11:31;10.43;;;5.40;;
21769;SDS011;11046;49.558;8.674;2023-11-18T15:14:34;8.00;;;4.17;;
21769;SDS011;11046;49.558;8.674;2023-11-18T15:17:34;7.50;;;4.27;;
21769;SDS011;11046;49.558;8.674;2023-11-18T15:20:39;7.67;;;3.90;;
21769;SDS011;11046;49.558;8.674;2023-11-18T15:23:43;8.27;;;3.63;;
21769;SDS011;11046;49.558;8.674;2023-11-18T15:26:43;5.90;;;3.10;;
21769;SDS011;11046;49.558;8.674;2023-11-18T15:29:44;5.80;;;3.27;;
21769;SDS011;11046;49.558;8.674;2023-11-18T15:32:49;4.80;;;2.70;;
21769;SDS011;11046;49.558;8.674;2023-11-18T15:35:50;6.93;;;3.83;;
21769;SDS011;11046;49.558;8.674;2023-11-18T15:38:50;7.23;;;3.40;;
21769;SDS011;11046;49.558;8.674;2023-11-18T15:41:51;7.90;;;2.63;;
21769;SDS011;11046;49.558;8.674;2023-11-18T15:44:55;4.27;;;2.43;;
21769;SDS011;11046;49.558;8.674;2023-11-18T15:47:57;5.07;;;2.80;;
21769;SDS011;11046;49.558;8.674;2023-11-18T15:51:01;6.80;;;3.10;;
21769;SDS011;11046;49.558;8.674;2023-11-18T15:54:02;3.67;;;2.33;;
21769;SDS011;11046;49.558;8.674;2023-11-18T15:57:03;4.20;;;2.37;;
21769;SDS011;11046;49.558;8.674;2023-11-18T16:00:04;5.80;;;2.33;;
21769;SDS011;11046;49.558;8.674;2023-11-18T16:03:06;5.17;;;2.07;;
21769;SDS011;11046;49.558;8.674;2023-11-18T16:06:08;6.70;;;2.30;;
21769;SDS011;11046;49.558;8.674;2023-11-18T16:09:10;4.77;;;2.27;;
21769;SDS011;11046;49.558;8.674;2023-11-18T16:12:11;6.50;;;2.20;;
21769;SDS011;11046;49.558;8.674;2023-11-18T16:15:11;4.77;;;2.37;;
21769;SDS011;11046;49.558;8.674;2023-11-18T16:18:13;4.27;;;2.20;;
21769;SDS011;11046;49.558;8.674;2023-11-18T16:21:14;5.77;;;2.57;;
21769;SDS011;11046;49.558;8.674;2023-11-18T16:24:17;5.97;;;2.87;;
21769;SDS011;11046;49.558;8.674;2023-11-18T16:27:18;6.63;;;2.80;;
21769;SDS011;11046;49.558;8.674;2023-11-18T16:30:19;9.53;;;3.40;;
21769;SDS011;11046;49.558;8.674;2023-11-18T16:33:31;6.30;;;3.30;;
21769;SDS011;11046;49.558;8.674;2023-11-18T16:36:32;8.43;;;3.20;;
21769;SDS011;11046;49.558;8.674;2023-11-18T16:39:33;4.63;;;2.97;;
21769;SDS011;11046;49.558;8.674;2023-11-18T16:42:34;7.80;;;3.07;;
21769;SDS011;11046;49.558;8.674;2023-11-18T16:45:36;6.63;;;3.33;;
21769;SDS011;11046;49.558;8.674;2023-11-18T16:48:37;5.30;;;2.90;;
21769;SDS011;11046;49.558;8.674;2023-11-18T16:51:37;5.10;;;3.00;;
21769;SDS011;11046;49.558;8.674;2023-11-18T16:54:39;6.63;;;2.60;;
21769;SDS011;11046;49.558;8.674;2023-11-18T16:57:40;6.30;;;2.90;;
21769;SDS011;11046;49.558;8.674;2023-11-18T17:00:40;7.07;;;3.63;;
21769;SDS011;11046;49.558;8.674;2023-11-18T17:03:42;5.70;;;2.97;;
21769;SDS011;11046;49.558;8.674;2023-11-18T17:06:43;6.13;;;2.97;;
21769;SDS011;11046;49.558;8.674;2023-11-18T17:09:44;7.33;;;3.57;;
21769;SDS011;11046;49.558;8.674;2023-11-18T17:12:46;7.37;;;2.87;;
21769;SDS011;11046;49.558;8.674;2023-11-18T17:15:47;10.73;;;4.03;;
21769;SDS011;11046;49.558;8.674;2023-11-18T17:18:49;10.37;;;4.57;;
21769;SDS011;11046;49.558;8.674;2023-11-18T17:21:49;10.10;;;4.87;;
21769;SDS011;11046;49.558;8.674;2023-11-18T17:24:52;9.70;;;4.70;;
21769;SDS011;11046;49.558;8.674;2023-11-18T17:27:54;13.93;;;6.20;;
21769;SDS011;11046;49.558;8.674;2023-11-18T17:30:55;11.30;;;5.40;;
21769;SDS011;11046;49.558;8.674;2023-11-18T17:33:55;13.10;;;5.00;;
21769;SDS011;11046;49.558;8.674;2023-11-18T17:36:56;6.30;;;3.87;;
21769;SDS011;11046;49.558;8.674;2023-11-18T17:39:57;8.53;;;3.20;;
21769;SDS011;11046;49.558;8.674;2023-11-18T17:42:57;8.47;;;3.50;;
21769;SDS011;11046;49.558;8.674;2023-11-18T17:45:58;8.00;;;2.40;;
21769;SDS011;11046;49.558;8.674;2023-11-18T17:48:58;4.50;;;2.67;;
21769;SDS011;11046;49.558;8.674;2023-11-18T17:51:59;5.07;;;2.00;;
21769;SDS011;11046;49.558;8.674;2023-11-18T17:55:00;4.30;;;2.50;;
21769;SDS011;11046;49.558;8.674;2023-11-18T17:58:00;7.30;;;2.83;;
21769;SDS011;11046;49.558;8.674;2023-11-18T18:01:01;7.67;;;2.73;;
21769;SDS011;11046;49.558;8.674;2023-11-18T18:04:02;5.77;;;2.50;;
21769;SDS011;11046;49.558;8.674;2023-11-18T18:07:02;6.60;;;2.70;;
21769;SDS011;11046;49.558;8.674;2023-11-18T18:10:07;5.17;;;2.80;;
21769;SDS011;11046;49.558;8.674;2023-11-18T18:13:08;6.47;;;2.40;;
21769;SDS011;11046;49.558;8.674;2023-11-18T18:16:10;5.03;;;2.27;;
21769;SDS011;11046;49.558;8.674;2023-11-18T18:19:13;5.70;;;2.70;;
21769;SDS011;11046;49.558;8.674;2023-11-18T18:22:13;7.07;;;2.10;;